Bookmark and Share
Track history (hours):
 

Zim Luanda

Last reported at 2014-Apr-15 21:25 UTC. Time now 2014-Apr-20 20:57 UTC.
Position N 39°36' W 073°52'.

Length 260 m; draft 11.6 m.

Type: Ship (hazmat cat A). MMSI: 249830000.

NotesDate/timePositionNaut miles runAvg speedWind from/ knotsBaromVisibWave heightAir tempDewpointWater temp
2014-Apr-15 21:25N 39°36' W 073°52'1314.5
2014-Apr-15 20:33N 39°48' W 073°52'3611.8
2014-Apr-15 17:30N 40°25' W 073°49'8 8.1
2014-Apr-15 16:33N 40°30' W 073°56'1211.9
2014-Apr-15 15:34N 40°39' W 074°06'3 2.9
2014-Apr-15 14:34N 40°41' W 074°09'0 0.0
2014-Apr-15 12:32N 40°41' W 074°09'0 0.0
2014-Apr-15 11:32N 40°41' W 074°09'0 0.0
2014-Apr-15 10:32N 40°41' W 074°09'0 0.0
2014-Apr-15 09:32N 40°41' W 074°09'0 0.0
2014-Apr-15 08:32N 40°41' W 074°09'0 0.0
2014-Apr-15 07:32N 40°41' W 074°09'0 0.0
2014-Apr-15 05:32N 40°41' W 074°09'0 0.0
2014-Apr-15 03:32N 40°41' W 074°09'0 0.0
2014-Apr-15 02:32N 40°41' W 074°09'0 0.0
2014-Apr-15 01:32N 40°41' W 074°09'0 0.0
2014-Apr-15 00:32N 40°41' W 074°09'0 0.0
2014-Apr-14 23:32N 40°41' W 074°09'0 0.0
2014-Apr-14 22:32N 40°41' W 074°09'0 0.0
2014-Apr-14 21:32N 40°41' W 074°09'2 2.3
2014-Apr-14 20:33N 40°39' W 074°09'8 8.1
2014-Apr-14 19:34N 40°33' W 074°02'1211.5
2014-Apr-14 18:33N 40°27' W 073°48'10 9.6
2014-Apr-14 17:33N 40°28' W 073°36'2713.2
2014-Apr-14 15:32N 40°30' W 073°01'1515.5
2014-Apr-14 14:33N 40°30' W 072°41'1515.5
2014-Apr-14 13:34N 40°31' W 072°20'3115.7
2014-Apr-14 11:34N 40°32' W 071°39'1615.9
2014-Apr-14 10:34N 40°32' W 071°18'1616.0
2014-Apr-14 09:34N 40°33' W 070°57'1616.3
2014-Apr-14 08:34N 40°33' W 070°36'1716.6
2014-Apr-14 07:34N 40°34' W 070°14'1716.7
2014-Apr-14 06:34N 40°34' W 069°52'1716.7
2014-Apr-14 05:33N 40°34' W 069°30'35811.8
2014-Apr-12 23:12N 44°38' W 063°34'0 0.0
2014-Apr-12 22:27N 44°38' W 063°34'0 0.0
2014-Apr-12 21:30N 44°38' W 063°34'0 0.0
2014-Apr-12 20:33N 44°38' W 063°34'0 0.0
2014-Apr-12 19:33N 44°38' W 063°34'0 0.0
2014-Apr-12 18:33N 44°38' W 063°34'0 0.0
2014-Apr-12 17:33N 44°38' W 063°34'0 0.0
2014-Apr-12 16:21N 44°38' W 063°34'0 0.0
2014-Apr-12 15:23N 44°38' W 063°34'1 1.0
2014-Apr-12 14:33N 44°37' W 063°33'10 9.6
2014-Apr-12 13:33N 44°28' W 063°27'1312.5
2014-Apr-12 12:29N 44°26' W 063°09'  

Dump ship's entire track history

sailing weather and tide predictions

Zim Luanda — 9HA2029 — position and weather